sensor_id;sensor_type;location;lat;lon;timestamp;P1;durP1;ratioP1;P2;durP2;ratioP2
17052;SDS011;8643;48.824;11.422;2023-08-06T00:00:31;3.55;;;2.45;;
17052;SDS011;8643;48.824;11.422;2023-08-06T00:02:59;3.63;;;2.30;;
17052;SDS011;8643;48.824;11.422;2023-08-06T00:05:28;3.67;;;2.70;;
17052;SDS011;8643;48.824;11.422;2023-08-06T00:07:58;2.53;;;2.30;;
17052;SDS011;8643;48.824;11.422;2023-08-06T00:10:26;3.10;;;2.30;;
17052;SDS011;8643;48.824;11.422;2023-08-06T00:12:54;3.63;;;2.42;;
17052;SDS011;8643;48.824;11.422;2023-08-06T00:15:23;3.03;;;2.30;;
17052;SDS011;8643;48.824;11.422;2023-08-06T00:17:51;3.55;;;2.72;;
17052;SDS011;8643;48.824;11.422;2023-08-06T00:20:20;4.45;;;2.47;;
17052;SDS011;8643;48.824;11.422;2023-08-06T00:22:48;3.40;;;2.92;;
17052;SDS011;8643;48.824;11.422;2023-08-06T00:25:18;5.75;;;2.90;;
17052;SDS011;8643;48.824;11.422;2023-08-06T00:27:47;3.95;;;2.80;;
17052;SDS011;8643;48.824;11.422;2023-08-06T00:30:15;3.92;;;3.17;;
17052;SDS011;8643;48.824;11.422;2023-08-06T00:32:44;5.38;;;2.90;;
17052;SDS011;8643;48.824;11.422;2023-08-06T00:35:12;3.08;;;2.78;;
17052;SDS011;8643;48.824;11.422;2023-08-06T00:37:41;3.42;;;2.55;;
17052;SDS011;8643;48.824;11.422;2023-08-06T00:40:10;3.22;;;2.58;;
17052;SDS011;8643;48.824;11.422;2023-08-06T00:42:40;3.00;;;2.70;;
17052;SDS011;8643;48.824;11.422;2023-08-06T00:45:10;4.30;;;2.60;;
17052;SDS011;8643;48.824;11.422;2023-08-06T00:47:39;4.10;;;2.75;;
17052;SDS011;8643;48.824;11.422;2023-08-06T00:50:10;4.78;;;2.70;;
17052;SDS011;8643;48.824;11.422;2023-08-06T00:52:39;5.15;;;2.67;;
17052;SDS011;8643;48.824;11.422;2023-08-06T00:55:08;2.83;;;2.53;;
17052;SDS011;8643;48.824;11.422;2023-08-06T00:57:37;4.18;;;3.17;;
17052;SDS011;8643;48.824;11.422;2023-08-06T01:00:09;5.97;;;2.80;;
17052;SDS011;8643;48.824;11.422;2023-08-06T01:02:39;2.60;;;2.20;;
17052;SDS011;8643;48.824;11.422;2023-08-06T01:05:07;3.30;;;2.78;;
17052;SDS011;8643;48.824;11.422;2023-08-06T01:07:39;2.95;;;2.45;;
17052;SDS011;8643;48.824;11.422;2023-08-06T01:10:23;4.22;;;2.22;;
17052;SDS011;8643;48.824;11.422;2023-08-06T01:13:06;3.17;;;2.38;;
17052;SDS011;8643;48.824;11.422;2023-08-06T01:15:49;6.78;;;2.35;;
17052;SDS011;8643;48.824;11.422;2023-08-06T01:18:24;5.18;;;2.67;;
17052;SDS011;8643;48.824;11.422;2023-08-06T01:20:54;2.90;;;2.30;;
17052;SDS011;8643;48.824;11.422;2023-08-06T01:23:22;4.05;;;2.28;;
17052;SDS011;8643;48.824;11.422;2023-08-06T01:25:55;3.28;;;2.30;;
17052;SDS011;8643;48.824;11.422;2023-08-06T01:28:40;3.30;;;2.50;;
17052;SDS011;8643;48.824;11.422;2023-08-06T01:31:18;3.28;;;2.47;;
17052;SDS011;8643;48.824;11.422;2023-08-06T01:33:55;3.15;;;2.78;;
17052;SDS011;8643;48.824;11.422;2023-08-06T01:36:28;3.63;;;2.70;;
17052;SDS011;8643;48.824;11.422;2023-08-06T01:38:59;4.63;;;2.50;;
17052;SDS011;8643;48.824;11.422;2023-08-06T01:41:27;3.78;;;2.35;;
17052;SDS011;8643;48.824;11.422;2023-08-06T01:43:56;3.90;;;2.83;;
17052;SDS011;8643;48.824;11.422;2023-08-06T01:46:25;3.53;;;2.33;;
17052;SDS011;8643;48.824;11.422;2023-08-06T01:48:53;6.32;;;2.80;;
17052;SDS011;8643;48.824;11.422;2023-08-06T01:51:22;4.30;;;2.80;;
17052;SDS011;8643;48.824;11.422;2023-08-06T01:53:52;4.10;;;3.10;;
17052;SDS011;8643;48.824;11.422;2023-08-06T01:56:20;3.78;;;2.88;;
17052;SDS011;8643;48.824;11.422;2023-08-06T01:58:49;5.90;;;2.83;;
17052;SDS011;8643;48.824;11.422;2023-08-06T02:01:17;6.72;;;2.95;;
17052;SDS011;8643;48.824;11.422;2023-08-06T02:03:46;4.35;;;3.42;;
17052;SDS011;8643;48.824;11.422;2023-08-06T02:06:14;4.68;;;3.50;;
17052;SDS011;8643;48.824;11.422;2023-08-06T02:08:44;3.50;;;2.95;;
17052;SDS011;8643;48.824;11.422;2023-08-06T02:11:15;5.15;;;3.20;;
17052;SDS011;8643;48.824;11.422;2023-08-06T02:13:45;6.15;;;2.95;;
17052;SDS011;8643;48.824;11.422;2023-08-06T02:16:17;4.18;;;2.90;;
17052;SDS011;8643;48.824;11.422;2023-08-06T02:18:46;3.40;;;2.63;;
17052;SDS011;8643;48.824;11.422;2023-08-06T02:21:14;4.85;;;3.30;;
17052;SDS011;8643;48.824;11.422;2023-08-06T02:23:43;4.55;;;2.85;;
17052;SDS011;8643;48.824;11.422;2023-08-06T02:26:12;3.67;;;3.00;;
17052;SDS011;8643;48.824;11.422;2023-08-06T02:28:42;3.10;;;2.78;;
17052;SDS011;8643;48.824;11.422;2023-08-06T02:31:12;5.63;;;2.83;;
17052;SDS011;8643;48.824;11.422;2023-08-06T02:33:41;4.72;;;3.30;;
17052;SDS011;8643;48.824;11.422;2023-08-06T02:36:09;7.90;;;2.78;;
17052;SDS011;8643;48.824;11.422;2023-08-06T02:38:38;3.75;;;3.00;;
17052;SDS011;8643;48.824;11.422;2023-08-06T02:41:06;5.78;;;3.40;;
17052;SDS011;8643;48.824;11.422;2023-08-06T02:43:35;5.68;;;3.45;;
17052;SDS011;8643;48.824;11.422;2023-08-06T02:46:05;5.30;;;3.55;;
17052;SDS011;8643;48.824;11.422;2023-08-06T02:48:33;5.53;;;3.22;;
17052;SDS011;8643;48.824;11.422;2023-08-06T02:51:02;4.03;;;3.40;;
17052;SDS011;8643;48.824;11.422;2023-08-06T02:53:32;6.38;;;3.60;;
17052;SDS011;8643;48.824;11.422;2023-08-06T02:56:04;6.25;;;3.38;;
17052;SDS011;8643;48.824;11.422;2023-08-06T02:58:46;4.47;;;3.30;;
17052;SDS011;8643;48.824;11.422;2023-08-06T03:01:27;5.20;;;3.42;;
17052;SDS011;8643;48.824;11.422;2023-08-06T03:04:03;6.32;;;3.40;;
17052;SDS011;8643;48.824;11.422;2023-08-06T03:06:37;4.32;;;3.13;;
17052;SDS011;8643;48.824;11.422;2023-08-06T03:09:06;3.13;;;2.80;;
17052;SDS011;8643;48.824;11.422;2023-08-06T03:11:34;5.70;;;3.47;;
17052;SDS011;8643;48.824;11.422;2023-08-06T03:14:08;6.00;;;3.53;;
17052;SDS011;8643;48.824;11.422;2023-08-06T03:16:38;3.40;;;3.10;;
17052;SDS011;8643;48.824;11.422;2023-08-06T03:19:07;4.90;;;3.30;;
17052;SDS011;8643;48.824;11.422;2023-08-06T03:21:35;5.50;;;3.30;;
17052;SDS011;8643;48.824;11.422;2023-08-06T03:24:04;4.35;;;3.42;;
17052;SDS011;8643;48.824;11.422;2023-08-06T03:26:34;6.22;;;4.00;;
17052;SDS011;8643;48.824;11.422;2023-08-06T03:29:03;4.68;;;3.63;;
17052;SDS011;8643;48.824;11.422;2023-08-06T03:31:33;4.55;;;3.55;;
17052;SDS011;8643;48.824;11.422;2023-08-06T03:34:04;4.72;;;3.45;;
17052;SDS011;8643;48.824;11.422;2023-08-06T03:36:33;7.43;;;3.40;;
17052;SDS011;8643;48.824;11.422;2023-08-06T03:39:02;4.00;;;3.58;;
17052;SDS011;8643;48.824;11.422;2023-08-06T03:41:31;4.28;;;3.40;;
17052;SDS011;8643;48.824;11.422;2023-08-06T03:44:00;4.90;;;3.80;;
17052;SDS011;8643;48.824;11.422;2023-08-06T03:46:30;4.75;;;3.58;;
17052;SDS011;8643;48.824;11.422;2023-08-06T03:49:03;4.25;;;3.47;;
17052;SDS011;8643;48.824;11.422;2023-08-06T03:51:32;3.90;;;3.17;;
17052;SDS011;8643;48.824;11.422;2023-08-06T03:54:01;3.90;;;3.30;;
17052;SDS011;8643;48.824;11.422;2023-08-06T03:56:30;4.22;;;3.33;;
17052;SDS011;8643;48.824;11.422;2023-08-06T03:58:59;4.03;;;3.40;;
17052;SDS011;8643;48.824;11.422;2023-08-06T04:01:27;6.28;;;3.50;;
17052;SDS011;8643;48.824;11.422;2023-08-06T04:03:56;3.80;;;3.00;;
17052;SDS011;8643;48.824;11.422;2023-08-06T04:06:26;4.20;;;3.60;;
17052;SDS011;8643;48.824;11.422;2023-08-06T04:08:54;5.30;;;3.88;;
17052;SDS011;8643;48.824;11.422;2023-08-06T04:11:22;4.78;;;3.55;;
17052;SDS011;8643;48.824;11.422;2023-08-06T04:13:51;4.70;;;3.45;;
17052;SDS011;8643;48.824;11.422;2023-08-06T04:16:20;4.38;;;3.58;;
17052;SDS011;8643;48.824;11.422;2023-08-06T04:18:49;4.75;;;3.67;;
17052;SDS011;8643;48.824;11.422;2023-08-06T04:21:17;4.43;;;3.47;;
17052;SDS011;8643;48.824;11.422;2023-08-06T04:23:47;5.32;;;3.83;;
17052;SDS011;8643;48.824;11.422;2023-08-06T04:26:17;5.18;;;3.55;;
17052;SDS011;8643;48.824;11.422;2023-08-06T04:28:45;4.78;;;3.70;;
17052;SDS011;8643;48.824;11.422;2023-08-06T04:31:14;5.30;;;3.53;;
17052;SDS011;8643;48.824;11.422;2023-08-06T04:33:44;4.65;;;3.60;;
17052;SDS011;8643;48.824;11.422;2023-08-06T04:36:14;4.55;;;3.50;;
17052;SDS011;8643;48.824;11.422;2023-08-06T04:38:43;6.88;;;3.70;;
17052;SDS011;8643;48.824;11.422;2023-08-06T04:41:16;4.45;;;3.58;;
17052;SDS011;8643;48.824;11.422;2023-08-06T04:43:44;4.40;;;3.47;;
17052;SDS011;8643;48.824;11.422;2023-08-06T04:46:13;4.35;;;3.78;;
17052;SDS011;8643;48.824;11.422;2023-08-06T04:48:41;5.13;;;3.75;;
17052;SDS011;8643;48.824;11.422;2023-08-06T04:51:09;5.72;;;4.28;;
17052;SDS011;8643;48.824;11.422;2023-08-06T04:53:38;4.78;;;3.75;;
17052;SDS011;8643;48.824;11.422;2023-08-06T04:56:06;6.53;;;4.43;;
17052;SDS011;8643;48.824;11.422;2023-08-06T04:58:36;6.22;;;4.68;;
17052;SDS011;8643;48.824;11.422;2023-08-06T05:01:05;5.65;;;4.30;;
17052;SDS011;8643;48.824;11.422;2023-08-06T05:03:34;7.03;;;4.53;;
17052;SDS011;8643;48.824;11.422;2023-08-06T05:06:02;6.00;;;4.20;;
17052;SDS011;8643;48.824;11.422;2023-08-06T05:08:31;5.40;;;4.78;;
17052;SDS011;8643;48.824;11.422;2023-08-06T05:10:59;6.55;;;4.95;;
17052;SDS011;8643;48.824;11.422;2023-08-06T05:13:28;6.95;;;5.25;;
17052;SDS011;8643;48.824;11.422;2023-08-06T05:15:58;5.93;;;4.72;;
17052;SDS011;8643;48.824;11.422;2023-08-06T05:18:26;7.72;;;5.55;;
17052;SDS011;8643;48.824;11.422;2023-08-06T05:20:55;8.40;;;5.25;;
17052;SDS011;8643;48.824;11.422;2023-08-06T05:23:23;7.22;;;5.50;;
17052;SDS011;8643;48.824;11.422;2023-08-06T05:25:52;8.25;;;5.00;;
17052;SDS011;8643;48.824;11.422;2023-08-06T05:28:21;7.03;;;5.10;;
17052;SDS011;8643;48.824;11.422;2023-08-06T05:30:49;9.25;;;5.50;;
17052;SDS011;8643;48.824;11.422;2023-08-06T05:33:18;7.35;;;5.18;;
17052;SDS011;8643;48.824;11.422;2023-08-06T05:35:48;7.22;;;5.07;;
17052;SDS011;8643;48.824;11.422;2023-08-06T05:38:17;6.47;;;5.30;;
17052;SDS011;8643;48.824;11.422;2023-08-06T05:40:45;8.05;;;5.53;;
17052;SDS011;8643;48.824;11.422;2023-08-06T05:43:14;6.28;;;5.05;;
17052;SDS011;8643;48.824;11.422;2023-08-06T05:45:44;6.60;;;5.05;;
17052;SDS011;8643;48.824;11.422;2023-08-06T05:48:13;6.47;;;5.32;;
17052;SDS011;8643;48.824;11.422;2023-08-06T05:50:42;7.82;;;5.10;;
17052;SDS011;8643;48.824;11.422;2023-08-06T05:53:11;6.88;;;4.55;;
17052;SDS011;8643;48.824;11.422;2023-08-06T05:55:39;6.68;;;4.55;;
17052;SDS011;8643;48.824;11.422;2023-08-06T05:58:08;5.47;;;4.22;;
17052;SDS011;8643;48.824;11.422;2023-08-06T06:00:36;6.18;;;4.63;;
17052;SDS011;8643;48.824;11.422;2023-08-06T06:03:04;7.97;;;4.10;;
17052;SDS011;8643;48.824;11.422;2023-08-06T06:05:33;6.47;;;4.22;;
17052;SDS011;8643;48.824;11.422;2023-08-06T06:08:03;5.35;;;4.15;;
17052;SDS011;8643;48.824;11.422;2023-08-06T06:10:31;8.27;;;3.95;;
17052;SDS011;8643;48.824;11.422;2023-08-06T06:13:00;6.63;;;4.80;;
17052;SDS011;8643;48.824;11.422;2023-08-06T06:15:28;5.18;;;4.15;;
17052;SDS011;8643;48.824;11.422;2023-08-06T06:17:57;6.45;;;4.38;;
17052;SDS011;8643;48.824;11.422;2023-08-06T06:20:25;4.78;;;4.28;;
17052;SDS011;8643;48.824;11.422;2023-08-06T06:22:54;6.32;;;4.47;;
17052;SDS011;8643;48.824;11.422;2023-08-06T06:25:24;7.05;;;4.18;;
17052;SDS011;8643;48.824;11.422;2023-08-06T06:27:52;5.07;;;4.32;;
17052;SDS011;8643;48.824;11.422;2023-08-06T06:30:20;5.18;;;4.03;;
17052;SDS011;8643;48.824;11.422;2023-08-06T06:32:49;4.60;;;4.03;;
17052;SDS011;8643;48.824;11.422;2023-08-06T06:35:17;5.20;;;4.05;;
17052;SDS011;8643;48.824;11.422;2023-08-06T06:37:46;6.43;;;4.28;;
17052;SDS011;8643;48.824;11.422;2023-08-06T06:40:14;5.78;;;4.30;;
17052;SDS011;8643;48.824;11.422;2023-08-06T06:42:44;7.63;;;4.10;;
17052;SDS011;8643;48.824;11.422;2023-08-06T06:45:14;5.75;;;4.05;;
17052;SDS011;8643;48.824;11.422;2023-08-06T06:47:42;5.22;;;4.10;;
17052;SDS011;8643;48.824;11.422;2023-08-06T06:50:11;6.15;;;4.47;;
17052;SDS011;8643;48.824;11.422;2023-08-06T06:52:39;5.88;;;3.85;;
17052;SDS011;8643;48.824;11.422;2023-08-06T06:55:08;5.20;;;4.38;;
17052;SDS011;8643;48.824;11.422;2023-08-06T06:57:37;4.38;;;3.05;;
17052;SDS011;8643;48.824;11.422;2023-08-06T07:00:07;5.85;;;3.10;;
17052;SDS011;8643;48.824;11.422;2023-08-06T07:02:37;5.88;;;3.03;;
17052;SDS011;8643;48.824;11.422;2023-08-06T07:05:06;4.80;;;3.20;;
17052;SDS011;8643;48.824;11.422;2023-08-06T07:07:36;5.45;;;2.78;;
17052;SDS011;8643;48.824;11.422;2023-08-06T07:10:05;3.42;;;2.58;;
17052;SDS011;8643;48.824;11.422;2023-08-06T07:12:34;4.20;;;2.70;;
17052;SDS011;8643;48.824;11.422;2023-08-06T07:15:03;5.25;;;2.83;;
17052;SDS011;8643;48.824;11.422;2023-08-06T07:17:35;2.72;;;2.40;;
17052;SDS011;8643;48.824;11.422;2023-08-06T07:20:04;4.90;;;2.50;;
17052;SDS011;8643;48.824;11.422;2023-08-06T07:22:34;8.52;;;2.50;;
17052;SDS011;8643;48.824;11.422;2023-08-06T07:25:03;5.95;;;2.70;;
17052;SDS011;8643;48.824;11.422;2023-08-06T07:27:32;3.65;;;2.58;;
17052;SDS011;8643;48.824;11.422;2023-08-06T07:30:02;4.95;;;2.33;;
17052;SDS011;8643;48.824;11.422;2023-08-06T07:32:32;4.30;;;2.50;;
17052;SDS011;8643;48.824;11.422;2023-08-06T07:35:02;3.17;;;2.10;;
17052;SDS011;8643;48.824;11.422;2023-08-06T07:37:31;3.88;;;2.28;;
17052;SDS011;8643;48.824;11.422;2023-08-06T07:39:59;4.25;;;2.33;;
17052;SDS011;8643;48.824;11.422;2023-08-06T07:42:28;3.92;;;2.20;;
17052;SDS011;8643;48.824;11.422;2023-08-06T07:44:57;3.92;;;2.50;;
17052;SDS011;8643;48.824;11.422;2023-08-06T07:47:26;3.40;;;2.35;;
17052;SDS011;8643;48.824;11.422;2023-08-06T07:49:55;4.10;;;2.33;;
17052;SDS011;8643;48.824;11.422;2023-08-06T07:52:24;3.50;;;2.10;;
17052;SDS011;8643;48.824;11.422;2023-08-06T07:54:53;5.22;;;2.05;;
17052;SDS011;8643;48.824;11.422;2023-08-06T07:57:21;3.55;;;1.75;;
17052;SDS011;8643;48.824;11.422;2023-08-06T07:59:50;3.20;;;1.90;;
17052;SDS011;8643;48.824;11.422;2023-08-06T08:02:20;1.98;;;1.50;;
17052;SDS011;8643;48.824;11.422;2023-08-06T08:04:49;2.33;;;1.45;;
17052;SDS011;8643;48.824;11.422;2023-08-06T08:07:18;4.55;;;1.40;;
17052;SDS011;8643;48.824;11.422;2023-08-06T08:09:48;2.35;;;1.60;;
17052;SDS011;8643;48.824;11.422;2023-08-06T08:12:16;3.17;;;1.27;;
17052;SDS011;8643;48.824;11.422;2023-08-06T08:14:45;1.40;;;1.20;;
17052;SDS011;8643;48.824;11.422;2023-08-06T08:17:14;2.75;;;1.30;;
17052;SDS011;8643;48.824;11.422;2023-08-06T08:19:43;2.55;;;1.58;;
17052;SDS011;8643;48.824;11.422;2023-08-06T08:22:11;3.75;;;1.27;;
17052;SDS011;8643;48.824;11.422;2023-08-06T08:24:40;2.67;;;1.20;;
17052;SDS011;8643;48.824;11.422;2023-08-06T08:27:09;1.65;;;1.10;;
17052;SDS011;8643;48.824;11.422;2023-08-06T08:29:38;3.30;;;1.33;;
17052;SDS011;8643;48.824;11.422;2023-08-06T08:32:06;1.35;;;1.00;;
17052;SDS011;8643;48.824;11.422;2023-08-06T08:34:36;1.40;;;1.15;;
17052;SDS011;8643;48.824;11.422;2023-08-06T08:37:05;2.15;;;1.20;;
17052;SDS011;8643;48.824;11.422;2023-08-06T08:39:33;1.85;;;1.20;;
17052;SDS011;8643;48.824;11.422;2023-08-06T08:42:01;3.63;;;1.27;;
17052;SDS011;8643;48.824;11.422;2023-08-06T08:44:32;1.85;;;1.10;;
17052;SDS011;8643;48.824;11.422;2023-08-06T08:47:03;2.72;;;1.08;;
17052;SDS011;8643;48.824;11.422;2023-08-06T08:49:35;2.30;;;1.23;;
17052;SDS011;8643;48.824;11.422;2023-08-06T08:52:04;2.03;;;0.90;;
17052;SDS011;8643;48.824;11.422;2023-08-06T08:54:37;2.20;;;1.40;;
17052;SDS011;8643;48.824;11.422;2023-08-06T08:57:07;2.95;;;1.25;;
17052;SDS011;8643;48.824;11.422;2023-08-06T08:59:37;2.20;;;1.27;;
17052;SDS011;8643;48.824;11.422;2023-08-06T09:02:06;4.88;;;1.60;;
17052;SDS011;8643;48.824;11.422;2023-08-06T09:04:39;2.50;;;1.40;;
17052;SDS011;8643;48.824;11.422;2023-08-06T09:07:08;2.10;;;1.63;;
17052;SDS011;8643;48.824;11.422;2023-08-06T09:09:42;2.95;;;1.85;;
17052;SDS011;8643;48.824;11.422;2023-08-06T09:12:14;2.28;;;1.92;;
17052;SDS011;8643;48.824;11.422;2023-08-06T09:14:45;4.22;;;1.88;;
17052;SDS011;8643;48.824;11.422;2023-08-06T09:17:14;3.13;;;1.90;;
17052;SDS011;8643;48.824;11.422;2023-08-06T09:19:46;4.25;;;1.60;;
17052;SDS011;8643;48.824;11.422;2023-08-06T09:22:16;2.15;;;1.50;;
17052;SDS011;8643;48.824;11.422;2023-08-06T09:24:44;2.83;;;1.10;;
17052;SDS011;8643;48.824;11.422;2023-08-06T09:27:13;2.55;;;1.00;;
17052;SDS011;8643;48.824;11.422;2023-08-06T09:29:42;2.13;;;0.80;;
17052;SDS011;8643;48.824;11.422;2023-08-06T09:32:13;1.70;;;0.88;;
17052;SDS011;8643;48.824;11.422;2023-08-06T09:34:42;2.35;;;1.08;;
17052;SDS011;8643;48.824;11.422;2023-08-06T09:37:11;2.03;;;1.00;;
17052;SDS011;8643;48.824;11.422;2023-08-06T09:39:40;0.85;;;0.60;;
17052;SDS011;8643;48.824;11.422;2023-08-06T09:42:08;1.85;;;0.80;;
17052;SDS011;8643;48.824;11.422;2023-08-06T09:44:38;1.52;;;0.70;;
17052;SDS011;8643;48.824;11.422;2023-08-06T09:47:09;1.50;;;0.60;;
17052;SDS011;8643;48.824;11.422;2023-08-06T09:49:42;0.65;;;0.52;;
17052;SDS011;8643;48.824;11.422;2023-08-06T09:52:13;2.33;;;0.60;;
17052;SDS011;8643;48.824;11.422;2023-08-06T09:54:43;0.95;;;0.60;;
17052;SDS011;8643;48.824;11.422;2023-08-06T09:57:12;2.97;;;0.68;;
17052;SDS011;8643;48.824;11.422;2023-08-06T09:59:42;0.75;;;0.47;;
17052;SDS011;8643;48.824;11.422;2023-08-06T10:02:12;3.42;;;0.60;;
17052;SDS011;8643;48.824;11.422;2023-08-06T10:04:43;0.98;;;0.50;;
17052;SDS011;8643;48.824;11.422;2023-08-06T10:07:21;0.50;;;0.38;;
17052;SDS011;8643;48.824;11.422;2023-08-06T10:09:51;0.80;;;0.50;;
17052;SDS011;8643;48.824;11.422;2023-08-06T10:12:19;1.25;;;0.25;;
17052;SDS011;8643;48.824;11.422;2023-08-06T10:14:51;0.90;;;0.20;;
17052;SDS011;8643;48.824;11.422;2023-08-06T10:17:24;0.35;;;0.35;;
17052;SDS011;8643;48.824;11.422;2023-08-06T10:20:15;1.48;;;0.32;;
17052;SDS011;8643;48.824;11.422;2023-08-06T10:22:45;2.00;;;0.30;;
17052;SDS011;8643;48.824;11.422;2023-08-06T10:25:16;0.22;;;0.20;;
17052;SDS011;8643;48.824;11.422;2023-08-06T10:27:53;0.30;;;0.30;;
17052;SDS011;8643;48.824;11.422;2023-08-06T10:30:23;1.98;;;0.20;;
17052;SDS011;8643;48.824;11.422;2023-08-06T10:32:53;1.25;;;0.20;;
17052;SDS011;8643;48.824;11.422;2023-08-06T10:35:32;0.60;;;0.30;;
17052;SDS011;8643;48.824;11.422;2023-08-06T10:38:07;0.90;;;0.30;;
17052;SDS011;8643;48.824;11.422;2023-08-06T10:40:39;0.30;;;0.30;;
17052;SDS011;8643;48.824;11.422;2023-08-06T10:43:11;0.63;;;0.30;;
17052;SDS011;8643;48.824;11.422;2023-08-06T10:45:54;1.30;;;1.02;;
17052;SDS011;8643;48.824;11.422;2023-08-06T10:48:31;0.63;;;0.28;;
17052;SDS011;8643;48.824;11.422;2023-08-06T10:51:06;0.47;;;0.30;;
17052;SDS011;8643;48.824;11.422;2023-08-06T10:53:37;1.05;;;0.57;;
17052;SDS011;8643;48.824;11.422;2023-08-06T10:56:11;0.60;;;0.30;;
17052;SDS011;8643;48.824;11.422;2023-08-06T10:58:41;0.20;;;0.20;;
17052;SDS011;8643;48.824;11.422;2023-08-06T11:01:11;0.50;;;0.30;;
17052;SDS011;8643;48.824;11.422;2023-08-06T11:03:40;0.63;;;0.20;;
17052;SDS011;8643;48.824;11.422;2023-08-06T11:06:16;1.20;;;0.20;;
17052;SDS011;8643;48.824;11.422;2023-08-06T11:08:49;0.20;;;0.20;;
17052;SDS011;8643;48.824;11.422;2023-08-06T11:11:20;0.38;;;0.25;;
17052;SDS011;8643;48.824;11.422;2023-08-06T11:13:50;0.15;;;0.15;;
17052;SDS011;8643;48.824;11.422;2023-08-06T11:16:20;0.30;;;0.30;;
17052;SDS011;8643;48.824;11.422;2023-08-06T11:18:51;0.30;;;0.30;;
17052;SDS011;8643;48.824;11.422;2023-08-06T11:21:22;0.30;;;0.30;;
17052;SDS011;8643;48.824;11.422;2023-08-06T11:23:51;0.52;;;0.30;;
17052;SDS011;8643;48.824;11.422;2023-08-06T11:26:21;0.20;;;0.20;;
17052;SDS011;8643;48.824;11.422;2023-08-06T11:28:50;1.25;;;0.35;;
17052;SDS011;8643;48.824;11.422;2023-08-06T11:31:19;0.40;;;0.20;;
17052;SDS011;8643;48.824;11.422;2023-08-06T11:33:48;0.73;;;0.20;;
17052;SDS011;8643;48.824;11.422;2023-08-06T11:36:29;0.68;;;0.30;;
17052;SDS011;8643;48.824;11.422;2023-08-06T11:38:58;0.68;;;0.30;;
17052;SDS011;8643;48.824;11.422;2023-08-06T11:41:27;0.50;;;0.30;;
17052;SDS011;8643;48.824;11.422;2023-08-06T11:43:56;0.45;;;0.22;;
17052;SDS011;8643;48.824;11.422;2023-08-06T11:46:25;0.93;;;0.40;;
17052;SDS011;8643;48.824;11.422;2023-08-06T11:48:54;1.40;;;0.30;;
17052;SDS011;8643;48.824;11.422;2023-08-06T11:51:24;3.30;;;0.82;;
17052;SDS011;8643;48.824;11.422;2023-08-06T11:53:55;0.20;;;0.20;;
17052;SDS011;8643;48.824;11.422;2023-08-06T11:56:25;0.88;;;0.30;;
17052;SDS011;8643;48.824;11.422;2023-08-06T11:58:55;0.30;;;0.20;;
17052;SDS011;8643;48.824;11.422;2023-08-06T12:01:23;0.20;;;0.20;;
17052;SDS011;8643;48.824;11.422;2023-08-06T12:03:57;1.23;;;0.30;;
17052;SDS011;8643;48.824;11.422;2023-08-06T12:06:26;1.25;;;0.40;;
17052;SDS011;8643;48.824;11.422;2023-08-06T12:08:56;0.35;;;0.30;;
17052;SDS011;8643;48.824;11.422;2023-08-06T12:11:25;0.30;;;0.30;;
17052;SDS011;8643;48.824;11.422;2023-08-06T12:13:54;0.20;;;0.20;;
17052;SDS011;8643;48.824;11.422;2023-08-06T12:16:23;0.30;;;0.30;;
17052;SDS011;8643;48.824;11.422;2023-08-06T12:18:52;0.32;;;0.20;;
17052;SDS011;8643;48.824;11.422;2023-08-06T12:21:20;0.50;;;0.30;;
17052;SDS011;8643;48.824;11.422;2023-08-06T12:23:49;0.30;;;0.30;;
17052;SDS011;8643;48.824;11.422;2023-08-06T12:26:19;0.30;;;0.30;;
17052;SDS011;8643;48.824;11.422;2023-08-06T12:28:47;1.10;;;1.00;;
17052;SDS011;8643;48.824;11.422;2023-08-06T12:31:16;0.20;;;0.20;;
17052;SDS011;8643;48.824;11.422;2023-08-06T12:33:45;0.55;;;0.50;;
17052;SDS011;8643;48.824;11.422;2023-08-06T12:36:14;0.47;;;0.32;;
17052;SDS011;8643;48.824;11.422;2023-08-06T12:38:42;0.95;;;0.43;;
17052;SDS011;8643;48.824;11.422;2023-08-06T12:41:11;1.52;;;0.40;;
17052;SDS011;8643;48.824;11.422;2023-08-06T12:43:40;1.80;;;0.30;;
17052;SDS011;8643;48.824;11.422;2023-08-06T12:46:09;1.52;;;0.30;;
17052;SDS011;8643;48.824;11.422;2023-08-06T12:48:38;1.40;;;0.30;;
17052;SDS011;8643;48.824;11.422;2023-08-06T12:51:07;2.28;;;0.40;;
17052;SDS011;8643;48.824;11.422;2023-08-06T12:53:35;5.93;;;0.52;;
17052;SDS011;8643;48.824;11.422;2023-08-06T12:56:04;2.42;;;0.30;;
17052;SDS011;8643;48.824;11.422;2023-08-06T12:58:32;1.80;;;0.30;;
17052;SDS011;8643;48.824;11.422;2023-08-06T13:01:03;1.25;;;0.30;;
17052;SDS011;8643;48.824;11.422;2023-08-06T13:03:31;0.98;;;0.50;;
17052;SDS011;8643;48.824;11.422;2023-08-06T13:06:00;0.82;;;0.40;;
17052;SDS011;8643;48.824;11.422;2023-08-06T13:08:28;3.15;;;0.50;;
17052;SDS011;8643;48.824;11.422;2023-08-06T13:10:57;0.40;;;0.40;;
17052;SDS011;8643;48.824;11.422;2023-08-06T13:13:25;0.88;;;0.40;;
17052;SDS011;8643;48.824;11.422;2023-08-06T13:15:54;3.05;;;0.50;;
17052;SDS011;8643;48.824;11.422;2023-08-06T13:18:23;0.40;;;0.30;;
17052;SDS011;8643;48.824;11.422;2023-08-06T13:20:53;0.30;;;0.30;;
17052;SDS011;8643;48.824;11.422;2023-08-06T13:23:22;0.20;;;0.20;;
17052;SDS011;8643;48.824;11.422;2023-08-06T13:25:50;0.20;;;0.20;;
17052;SDS011;8643;48.824;11.422;2023-08-06T13:28:19;0.80;;;0.30;;
17052;SDS011;8643;48.824;11.422;2023-08-06T13:30:47;0.52;;;0.20;;
17052;SDS011;8643;48.824;11.422;2023-08-06T13:33:16;0.70;;;0.30;;
17052;SDS011;8643;48.824;11.422;2023-08-06T13:35:46;1.30;;;0.50;;
17052;SDS011;8643;48.824;11.422;2023-08-06T13:38:14;1.77;;;0.30;;
17052;SDS011;8643;48.824;11.422;2023-08-06T13:40:42;1.33;;;0.50;;
17052;SDS011;8643;48.824;11.422;2023-08-06T13:43:12;0.68;;;0.32;;
17052;SDS011;8643;48.824;11.422;2023-08-06T13:45:42;0.80;;;0.50;;
17052;SDS011;8643;48.824;11.422;2023-08-06T13:48:11;0.73;;;0.40;;
17052;SDS011;8643;48.824;11.422;2023-08-06T13:50:39;0.90;;;0.70;;
17052;SDS011;8643;48.824;11.422;2023-08-06T13:53:09;2.65;;;0.40;;
17052;SDS011;8643;48.824;11.422;2023-08-06T13:55:37;1.05;;;0.50;;
17052;SDS011;8643;48.824;11.422;2023-08-06T13:58:06;1.42;;;0.50;;
17052;SDS011;8643;48.824;11.422;2023-08-06T14:00:35;0.55;;;0.50;;
17052;SDS011;8643;48.824;11.422;2023-08-06T14:03:04;2.42;;;0.40;;
17052;SDS011;8643;48.824;11.422;2023-08-06T14:05:32;0.70;;;0.40;;
17052;SDS011;8643;48.824;11.422;2023-08-06T14:08:01;0.70;;;0.50;;
17052;SDS011;8643;48.824;11.422;2023-08-06T14:10:30;1.20;;;0.40;;
17052;SDS011;8643;48.824;11.422;2023-08-06T14:12:59;0.50;;;0.50;;
17052;SDS011;8643;48.824;11.422;2023-08-06T14:15:36;0.40;;;0.40;;
17052;SDS011;8643;48.824;11.422;2023-08-06T14:18:06;0.77;;;0.60;;
17052;SDS011;8643;48.824;11.422;2023-08-06T14:20:35;0.55;;;0.52;;
17052;SDS011;8643;48.824;11.422;2023-08-06T14:23:04;0.50;;;0.50;;
17052;SDS011;8643;48.824;11.422;2023-08-06T14:25:34;0.60;;;0.60;;
17052;SDS011;8643;48.824;11.422;2023-08-06T14:28:02;0.68;;;0.50;;
17052;SDS011;8643;48.824;11.422;2023-08-06T14:30:33;0.90;;;0.40;;
17052;SDS011;8643;48.824;11.422;2023-08-06T14:33:02;1.25;;;0.70;;
17052;SDS011;8643;48.824;11.422;2023-08-06T14:35:50;0.77;;;0.60;;
17052;SDS011;8643;48.824;11.422;2023-08-06T14:38:18;0.60;;;0.50;;
17052;SDS011;8643;48.824;11.422;2023-08-06T14:40:48;0.63;;;0.50;;
17052;SDS011;8643;48.824;11.422;2023-08-06T14:43:16;1.58;;;0.75;;
17052;SDS011;8643;48.824;11.422;2023-08-06T14:45:45;1.67;;;0.60;;
17052;SDS011;8643;48.824;11.422;2023-08-06T14:48:13;1.02;;;0.80;;
17052;SDS011;8643;48.824;11.422;2023-08-06T14:50:41;0.80;;;0.63;;
17052;SDS011;8643;48.824;11.422;2023-08-06T14:53:10;1.25;;;0.80;;
17052;SDS011;8643;48.824;11.422;2023-08-06T14:55:39;1.70;;;0.70;;
17052;SDS011;8643;48.824;11.422;2023-08-06T14:58:09;1.63;;;0.80;;
17052;SDS011;8643;48.824;11.422;2023-08-06T15:00:38;1.80;;;0.90;;
17052;SDS011;8643;48.824;11.422;2023-08-06T15:03:06;1.27;;;0.90;;